ADDS METAR Data INFO
IDs: Format: Raw Decoded Include TAF

Data at: 0940 UTC 25 Jun 2018

KASG 250148Z 00000KT 10SM FEW110 22/20 A2988
KASG 250048Z 13011KT 10SM BKN120 22/20 A2995
KASG 242348Z 16007KT 10SM SCT035 BKN060 23/21 A2993
KASG 242248Z 22005G10KT 10SM FEW009 SCT035 BKN060 23/21 A2996
KASG 242148Z 14011KT 10SM SCT040 25/20 A2992
KASG 242048Z 24004KT 10SM SCT023 SCT040 24/20 A2997
KASG 241948Z 27007KT 10SM SCT023 24/20 A2998
KASG 241848Z 26011KT 10SM SCT023 24/19 A2998
KASG 241748Z 25010G17KT 10SM SCT018 SCT024 24/19 A2997
KASG 241729Z 24012G19KT 10SM SCT018 SCT024 23/19 A2997
KASG 241648Z 22012KT 10SM BKN012 BKN019 21/20 A2997
KASG 241548Z 25007G14KT 10SM OVC012 20/20 A2989
KASG 241505Z 26014G23KT 10SM BKN012 BKN019 OVC025 20/20 A2988
KASG 241448Z 18010G20KT 10SM FEW035 21/21 A2983
KASG 241348Z 13012KT 8SM -RA FEW033 SCT048 BKN060 21/21 A2983 RMK LTG DSNT ALQDS
KASG 241248Z 24008G18KT 5SM -RABR FEW016 SCT036 BKN044 23/23 A2991 RMK VCTS
KASG 241148Z 11004KT 10SM -RA FEW040 SCT049 BKN055 22/22 A2986 RMK VCTS
KASG 241048Z 14005KT 10SM -RA FEW030 BKN047 OVC100 23/21 A2987 RMK VCTS
KASG 240148Z 23004KT 10SM FEW085 27/17 A2986
KASG 240048Z 23005KT 10SM FEW085 28/18 A2986
KASG 232348Z 27006KT 10SM FEW085 29/16 A2985
KASG 232248Z 25005G12KT 10SM FEW085 30/17 A2985
KASG 232148Z 24010G17KT 10SM FEW055 31/17 A2986